SpazioLink.com il tuo mini portale

Terremoti in Italia, posizione geografica

Spaziolink il MiniPortale

Home Sfondi Cerca SuperEnalotto Posizione navi Terremoti Directory Video Forum Giochi Meteo Gifs Software
Lista dei terremoti in Italia in tempo reale dopo l'elaborazione dei valori rilevati dai sensori dislocati nelle zone interessate, comprendenti gli eventi sismici di elevata magnitudo sull'intero globo, per visualizzare la posizione dell'epicentro su Google Maps cliccare sul nome del luogo evidenziato in blu.
DATA ORA MAG ≥ 2 ZONA REGIONE LAT LONG PROF km
18/10/2019 09:22:28 ML 2.6 Costa Siciliana centro-settentrionale (Palermo) Mare 38.40 13.42 5.0
18/10/2019 03:06:07 ML 3.3 1 km a nord di Milo (CT) Sicilia 37.73 15.11 8.9
18/10/2019 00:03:55 ML 2.7 Costa Ionica Crotonese (Crotone) Mare 39.18 17.18 8.3
17/10/2019 09:20:13 ML 2.6 5 km a sud-ovest di Arezzo (AR) Toscana 43.43 11.84 8.1
17/10/2019 06:20:33 ML 2.3 5 km a est di Borgo Val di Taro (PR) Emilia Romagna 44.48 9.84 8.3
17/10/2019 05:38:10 ML 2.2 2 km a est di Milo (CT) Sicilia 37.73 15.14 7.8
16/10/2019 13:37:06 Mwp 6.3 Philippines (Land) Mondo 6.80 125.15 19.5
16/10/2019 07:14:33 ML 2.0 1 km a ovest di Foligno (PG) Umbria 42.95 12.69 9.6
15/10/2019 19:52:05 ML 2.7 4 km a nord-ovest di Caprese Michelangelo (AR) Toscana 43.66 11.95 10.3
15/10/2019 18:49:24 ML 2.1 4 km a nord-ovest di San Mauro Forte (MT) Basilicata 40.51 16.22 19.3
15/10/2019 13:54:52 Mw 3.9 Costa Ionica Crotonese (Crotone) Mare 39.21 17.15 9.5
15/10/2019 00:23:55 Mwp 6.2 Southern Sumatera, Indonesia (Sea: Indonesia) Mondo -4.44 101.29 19.5
14/10/2019 23:15:55 ML 2.8 4 km nord-est Norcia (PG) Umbria 42.82 13.13 9.9
14/10/2019 22:42:41 ML 3.8 Tirreno Meridionale (MARE) Mare 38.83 14.87 297.1
14/10/2019 19:37:58 ML 2.6 4 km a est di Pignola (PZ) Basilicata 40.57 15.83 18.1
14/10/2019 11:02:38 ML 2.6 4 km nord-est Cittareale (RI) Lazio 42.65 13.19 14.2
14/10/2019 08:28:51 ML 2.5 4 km nord-est Cittareale (RI) Lazio 42.65 13.19 12.7
13/10/2019 23:29:21 ML 2.4 4 km nord-est Spoleto (PG) Umbria 42.77 12.76 7.7
12/10/2019 21:30:03 ML 2.2 Costa Siciliana nord-orientale (Messina) Mare 38.32 15.44 122.1
12/10/2019 14:29:55 ML 3.1 2 km a sud di Capitignano (AQ) Abruzzo 42.50 13.30 11.2
11/10/2019 22:44:52 ML 2.5 Tirreno Meridionale (MARE) Mare 38.64 14.03 7.7
11/10/2019 15:49:33 ML 2.9 Tirreno Meridionale (MARE) Mare 38.43 15.37 122.8
11/10/2019 14:49:19 ML 2.3 5 km a sud-ovest di Castelsantangelo sul Nera (MC) Marche 42.87 13.11 7.5
- traduzioni - freegames - frasi - subnet mask - partners - ipcheck - pagerank - wi-fi - barzellette - favicon - speedtest - programmone - calendariofeste - screenmates -
Locations of visitors to this page